Time;durP1;ratioP1;P1;durP2;ratioP2;P2;SDS_P1;SDS_P2;PMS_P1;PMS_P2;Temp;Humidity;BMP_temperature;BMP_pressure;BME280_temperature;BME280_humidity;BME280_pressure;Samples;Min_cycle;Max_cycle;Signal;HPM_P1;HPM_P2
2023/07/10 00:00:23;;;;;;;4.77;4.00;;;;;;;20.32;100.00;96697.00;5028552;28;105142;-70
2023/07/10 00:02:52;;;;;;;4.67;3.40;;;;;;;20.33;100.00;96697.81;5029031;28;101833;-70
2023/07/10 00:05:21;;;;;;;5.37;4.10;;;;;;;19.95;100.00;96699.16;5029074;28;105186;-70
2023/07/10 00:07:48;;;;;;;3.87;3.47;;;;;;;20.02;100.00;96702.22;5029562;27;102510;-70
2023/07/10 00:10:18;;;;;;;6.77;3.70;;;;;;;19.57;100.00;96700.47;5030330;27;101988;-70
2023/07/10 00:12:46;;;;;;;4.60;3.73;;;;;;;19.42;100.00;96704.25;5030029;27;102431;-70
2023/07/10 00:15:19;;;;;;;4.43;3.60;;;;;;;19.72;100.00;96702.88;5032239;27;102601;-69
2023/07/10 00:17:47;;;;;;;4.00;3.60;;;;;;;19.75;100.00;96703.06;5029014;28;105128;-69
2023/07/10 00:20:17;;;;;;;4.87;3.67;;;;;;;19.59;100.00;96703.66;5028179;28;105400;-69
2023/07/10 00:22:44;;;;;;;6.33;3.70;;;;;;;19.46;100.00;96693.66;5029892;27;101950;-69
2023/07/10 00:25:15;;;;;;;6.20;4.47;;;;;;;19.71;100.00;96706.66;5030146;27;101763;-68
2023/07/10 00:27:42;;;;;;;6.37;4.37;;;;;;;19.67;100.00;96695.66;5029147;28;102637;-68
2023/07/10 00:30:19;;;;;;;4.07;3.67;;;;;;;19.64;100.00;96696.28;5028678;28;102256;-68
2023/07/10 00:32:51;;;;;;;6.37;4.50;;;;;;;19.77;100.00;96700.84;5028508;28;103651;-68
2023/07/10 00:35:20;;;;;;;4.63;4.13;;;;;;;19.51;100.00;96698.97;5029275;28;103609;-69
2023/07/10 00:38:00;;;;;;;4.47;3.90;;;;;;;19.46;100.00;96699.06;5031780;28;101962;-69
2023/07/10 00:40:29;;;;;;;5.00;4.07;;;;;;;19.62;100.00;96698.44;5027903;28;105644;-68
2023/07/10 00:43:01;;;;;;;5.57;4.17;;;;;;;19.69;100.00;96698.88;5028453;28;101888;-69
2023/07/10 00:45:30;;;;;;;5.37;4.50;;;;;;;19.62;100.00;96697.66;5028423;28;105982;-69
2023/07/10 00:48:06;;;;;;;6.00;4.37;;;;;;;19.58;100.00;96702.06;5027531;28;106204;-69
2023/07/10 00:50:37;;;;;;;4.67;4.13;;;;;;;19.60;100.00;96694.44;5028409;28;101889;-70
2023/07/10 00:53:13;;;;;;;4.50;4.10;;;;;;;19.57;100.00;96706.63;5029911;27;102553;-71
2023/07/10 00:55:43;;;;;;;6.73;4.30;;;;;;;19.65;100.00;96707.84;5027738;28;105621;-71
2023/07/10 00:58:23;;;;;;;7.33;4.27;;;;;;;19.54;100.00;96696.47;5028285;28;101926;-70
2023/07/10 01:01:09;;;;;;;5.17;4.07;;;;;;;19.68;100.00;96702.66;5031276;28;105132;-71
2023/07/10 01:03:39;;;;;;;4.67;4.20;;;;;;;19.39;100.00;96698.63;5029623;28;101710;-70
2023/07/10 01:06:10;;;;;;;5.57;4.43;;;;;;;19.49;100.00;96688.47;5029518;28;102492;-70
2023/07/10 01:08:40;;;;;;;5.60;4.03;;;;;;;19.36;100.00;96691.97;5028884;27;102624;-69
2023/07/10 01:11:07;;;;;;;6.77;4.03;;;;;;;19.18;100.00;96694.69;5028078;28;101909;-69
2023/07/10 01:13:38;;;;;;;4.50;4.00;;;;;;;19.32;100.00;96696.34;5029355;27;102347;-69
2023/07/10 01:16:07;;;;;;;4.97;4.10;;;;;;;19.38;100.00;96692.47;5027373;28;103780;-70
2023/07/10 01:18:35;;;;;;;6.00;4.10;;;;;;;19.34;100.00;96691.44;5028055;28;102299;-69
2023/07/10 01:21:25;;;;;;;6.70;4.00;;;;;;;19.29;100.00;96694.22;5029499;27;102370;-70
2023/07/10 01:23:53;;;;;;;4.83;3.83;;;;;;;19.39;100.00;96688.66;5029238;28;105274;-70
2023/07/10 01:26:20;;;;;;;4.20;3.90;;;;;;;19.13;100.00;96689.41;5030197;27;102346;-70
2023/07/10 01:28:48;;;;;;;6.00;3.97;;;;;;;19.03;100.00;96686.88;5030614;28;105734;-70
2023/07/10 01:31:18;;;;;;;5.63;4.23;;;;;;;19.02;100.00;96690.66;5030788;28;101897;-70
2023/07/10 01:33:48;;;;;;;7.80;4.07;;;;;;;18.90;100.00;96685.75;5031503;28;105627;-69
2023/07/10 01:36:19;;;;;;;5.53;4.00;;;;;;;18.85;100.00;96690.44;5031972;27;102762;-70
2023/07/10 01:38:50;;;;;;;4.27;3.87;;;;;;;19.06;100.00;96694.34;5031147;28;102005;-70
2023/07/10 01:41:26;;;;;;;4.63;3.90;;;;;;;19.03;100.00;96694.97;5032802;27;102311;-70
2023/07/10 01:43:53;;;;;;;7.97;4.17;;;;;;;19.08;100.00;96686.78;5034069;28;105793;-71
2023/07/10 01:46:22;;;;;;;5.40;3.53;;;;;;;18.98;100.00;96678.88;5031263;28;105694;-71
2023/07/10 01:48:54;;;;;;;5.90;3.93;;;;;;;19.07;100.00;96679.81;5031785;27;102606;-71
2023/07/10 01:51:22;;;;;;;5.00;3.80;;;;;;;18.95;100.00;96679.44;5031142;28;101810;-71
2023/07/10 01:53:51;;;;;;;4.90;3.97;;;;;;;18.95;100.00;96676.75;5031001;28;105290;-71
2023/07/10 01:56:22;;;;;;;4.33;3.93;;;;;;;18.80;100.00;96677.03;5031897;28;102681;-69
2023/07/10 01:58:49;;;;;;;6.07;4.30;;;;;;;18.88;100.00;96669.06;5030986;28;101844;-70
2023/07/10 02:01:16;;;;;;;6.30;4.27;;;;;;;18.99;100.00;96675.06;5030820;28;105241;-69
2023/07/10 02:03:43;;;;;;;6.47;4.37;;;;;;;18.92;100.00;96671.97;5030284;28;105588;-70
2023/07/10 02:06:13;;;;;;;5.90;3.60;;;;;;;19.11;100.00;96670.00;5034391;28;101919;-69
2023/07/10 02:08:42;;;;;;;6.97;3.80;;;;;;;19.16;100.00;96664.53;5031392;27;102740;-69
2023/07/10 02:11:12;;;;;;;6.07;4.37;;;;;;;18.95;100.00;96663.28;5030735;28;101942;-69
2023/07/10 02:13:39;;;;;;;6.53;4.33;;;;;;;19.04;100.00;96662.31;5030677;28;105182;-69
2023/07/10 02:16:06;;;;;;;5.17;3.70;;;;;;;18.91;100.00;96663.06;5030194;28;105447;-70
2023/07/10 02:18:32;;;;;;;8.20;4.23;;;;;;;18.87;100.00;96670.16;5030899;28;102290;-69
2023/07/10 02:20:59;;;;;;;5.53;3.93;;;;;;;18.87;100.00;96672.06;5030633;28;105677;-70
2023/07/10 02:23:26;;;;;;;4.57;4.13;;;;;;;18.71;100.00;96681.47;5029821;28;105567;-69
2023/07/10 02:25:53;;;;;;;4.53;4.10;;;;;;;18.63;100.00;96674.88;5030549;28;101858;-69
2023/07/10 02:28:22;;;;;;;6.17;4.37;;;;;;;18.67;100.00;96681.28;5033085;28;105608;-70
2023/07/10 02:30:49;;;;;;;5.70;4.37;;;;;;;18.72;100.00;96683.88;5031597;27;102126;-70
2023/07/10 02:33:18;;;;;;;4.87;4.10;;;;;;;18.80;100.00;96690.50;5030468;28;105414;-69
2023/07/10 02:35:46;;;;;;;6.20;4.47;;;;;;;18.70;100.00;96690.66;5029842;28;105468;-68
2023/07/10 02:38:13;;;;;;;7.97;4.00;;;;;;;18.53;100.00;96690.41;5029600;27;101931;-68
2023/07/10 02:40:41;;;;;;;4.53;3.77;;;;;;;18.77;100.00;96689.19;5030427;28;105048;-69
2023/07/10 02:43:08;;;;;;;12.30;3.97;;;;;;;18.80;100.00;96693.19;5029729;28;105468;-69
2023/07/10 02:45:37;;;;;;;7.33;5.27;;;;;;;18.71;100.00;96692.25;5030247;28;101903;-70
2023/07/10 02:48:04;;;;;;;5.73;4.00;;;;;;;18.72;100.00;96691.97;5030197;28;105187;-71
2023/07/10 02:50:33;;;;;;;7.20;4.60;;;;;;;18.65;100.00;96696.13;5032986;28;104177;-73
2023/07/10 02:53:00;;;;;;;8.60;4.97;;;;;;;18.67;100.00;96708.22;5029882;28;105491;-73
2023/07/10 02:55:27;;;;;;;5.40;4.03;;;;;;;18.46;100.00;96704.22;5029112;28;105354;-73
2023/07/10 02:57:54;;;;;;;5.80;4.33;;;;;;;18.38;100.00;96717.56;5029967;28;101892;-72
2023/07/10 03:00:21;;;;;;;5.87;4.40;;;;;;;18.54;100.00;96718.94;5030068;28;105621;-69
2023/07/10 03:02:54;;;;;;;8.03;4.00;;;;;;;18.69;100.00;96716.00;5030763;27;102703;-69
2023/07/10 03:05:21;;;;;;;5.43;4.17;;;;;;;18.56;100.00;96716.75;5031510;27;101910;-69
2023/07/10 03:07:48;;;;;;;5.50;4.20;;;;;;;18.33;100.00;96712.25;5031255;27;103120;-69
2023/07/10 03:10:16;;;;;;;5.93;4.27;;;;;;;18.27;100.00;96718.75;5029103;28;105155;-69
2023/07/10 03:12:43;;;;;;;6.63;4.30;;;;;;;18.31;100.00;96722.47;5034709;27;102233;-68
2023/07/10 03:15:10;;;;;;;7.10;4.37;;;;;;;18.15;100.00;96715.69;5030524;27;102640;-69
2023/07/10 03:17:37;;;;;;;6.20;4.20;;;;;;;18.24;100.00;96713.94;5029692;28;101908;-69
2023/07/10 03:20:06;;;;;;;5.20;4.03;;;;;;;18.21;100.00;96715.31;5029503;28;105569;-69
2023/07/10 03:22:35;;;;;;;5.13;4.13;;;;;;;18.13;100.00;96709.78;5029178;28;105674;-69
2023/07/10 03:25:03;;;;;;;7.77;4.37;;;;;;;18.13;100.00;96707.09;5029514;28;102124;-69
2023/07/10 03:27:29;;;;;;;4.90;4.13;;;;;;;18.06;100.00;96699.41;5029508;28;104683;-68
2023/07/10 03:29:56;;;;;;;5.00;4.27;;;;;;;18.02;100.00;96697.56;5030150;27;102631;-68
2023/07/10 03:32:23;;;;;;;5.53;4.43;;;;;;;18.10;100.00;96691.53;5029175;28;102007;-68
2023/07/10 03:34:50;;;;;;;5.37;4.60;;;;;;;18.12;100.00;96694.72;5032385;28;105436;-68
2023/07/10 03:37:19;;;;;;;6.83;4.13;;;;;;;18.25;100.00;96694.03;5029286;28;101939;-68
2023/07/10 03:39:45;;;;;;;4.80;4.27;;;;;;;18.02;100.00;96701.06;5030761;27;102889;-68
2023/07/10 03:42:12;;;;;;;5.90;4.17;;;;;;;18.13;100.00;96699.84;5028804;28;105340;-68
2023/07/10 03:44:39;;;;;;;5.17;4.10;;;;;;;18.17;100.00;96697.34;5030849;27;102076;-68
2023/07/10 03:47:06;;;;;;;4.77;4.27;;;;;;;18.15;100.00;96696.84;5029396;28;105172;-68
2023/07/10 03:49:33;;;;;;;7.37;4.57;;;;;;;18.06;100.00;96695.91;5028937;27;102525;-69
2023/07/10 03:52:00;;;;;;;6.07;4.03;;;;;;;18.35;100.00;96694.69;5030557;27;102296;-69
2023/07/10 03:54:32;;;;;;;5.97;4.77;;;;;;;18.50;100.00;96701.75;5033426;27;102346;-69
2023/07/10 03:56:59;;;;;;;5.03;4.50;;;;;;;18.47;100.00;96697.75;5029009;28;101976;-69
2023/07/10 03:59:26;;;;;;;5.40;4.50;;;;;;;18.40;100.00;96701.91;5029294;28;105629;-69
2023/07/10 04:01:52;;;;;;;7.03;5.00;;;;;;;18.28;100.00;96706.88;5028373;28;105964;-68
2023/07/10 04:04:19;;;;;;;6.53;4.00;;;;;;;18.59;100.00;96705.38;5028860;28;102193;-68
2023/07/10 04:06:46;;;;;;;5.83;4.40;;;;;;;18.73;100.00;96707.03;5030478;27;102592;-68
2023/07/10 04:09:13;;;;;;;5.00;4.00;;;;;;;18.76;100.00;96694.88;5029609;27;102480;-70
2023/07/10 04:11:41;;;;;;;6.50;4.20;;;;;;;18.83;100.00;96706.06;5028747;28;101922;-70
2023/07/10 04:14:08;;;;;;;5.57;4.77;;;;;;;19.01;100.00;96706.03;5028899;28;105160;-70
2023/07/10 04:16:35;;;;;;;8.37;4.63;;;;;;;19.18;100.00;96708.19;5033129;27;102663;-70
2023/07/10 04:19:02;;;;;;;5.73;4.67;;;;;;;19.32;100.00;96703.63;5028700;28;104871;-67
2023/07/10 04:21:31;;;;;;;6.57;5.83;;;;;;;19.23;100.00;96710.81;5028099;28;105742;-68
2023/07/10 04:23:58;;;;;;;6.40;5.30;;;;;;;19.42;100.00;96714.22;5030152;27;101947;-69
2023/07/10 04:26:27;;;;;;;9.47;5.30;;;;;;;19.60;100.00;96710.63;5028777;28;105221;-70
2023/07/10 04:28:58;;;;;;;5.13;4.63;;;;;;;19.73;100.00;96717.97;5029425;27;102528;-71
2023/07/10 04:31:26;;;;;;;6.70;4.93;;;;;;;19.86;100.00;96704.47;5029481;27;102109;-68
2023/07/10 04:33:54;;;;;;;5.53;4.83;;;;;;;20.04;100.00;96714.34;5028443;28;105578;-70
2023/07/10 04:36:21;;;;;;;7.53;4.73;;;;;;;20.13;100.00;96717.97;5029365;27;102602;-72
2023/07/10 04:38:49;;;;;;;7.73;4.40;;;;;;;20.37;100.00;96709.59;5033292;27;102173;-73
2023/07/10 04:41:19;;;;;;;5.80;4.50;;;;;;;20.53;100.00;96710.84;5027919;28;104686;-71
2023/07/10 04:43:46;;;;;;;5.03;4.53;;;;;;;20.62;100.00;96715.25;5029800;28;102038;-70
2023/07/10 04:46:17;;;;;;;6.63;4.83;;;;;;;20.76;100.00;96717.88;5028465;28;105591;-65
2023/07/10 04:48:44;;;;;;;5.00;4.37;;;;;;;20.94;100.00;96719.63;5029225;27;102085;-68
2023/07/10 04:51:13;;;;;;;6.13;4.80;;;;;;;21.24;100.00;96718.88;5028302;28;102339;-68
2023/07/10 04:53:40;;;;;;;6.67;4.33;;;;;;;21.56;100.00;96719.38;5028279;28;105702;-68
2023/07/10 04:56:10;;;;;;;6.43;4.13;;;;;;;21.80;100.00;96708.19;5028834;27;102631;-68
2023/07/10 04:58:50;;;;;;;5.90;4.70;;;;;;;21.87;100.00;96712.03;5028510;28;102333;-68
2023/07/10 05:01:20;;;;;;;7.33;4.50;;;;;;;21.97;100.00;96727.19;5032093;27;105704;-68
2023/07/10 05:03:47;;;;;;;7.23;4.90;;;;;;;21.99;100.00;96722.25;5033005;27;101846;-68
2023/07/10 05:06:14;;;;;;;6.53;4.90;;;;;;;21.97;100.00;96722.56;5033142;27;102904;-68
2023/07/10 05:08:41;;;;;;;6.87;4.93;;;;;;;22.01;100.00;96726.25;5032550;27;102690;-68
2023/07/10 05:11:08;;;;;;;5.27;4.60;;;;;;;22.11;100.00;96725.16;5031682;28;101885;-68
2023/07/10 05:13:34;;;;;;;5.23;4.73;;;;;;;22.13;100.00;96721.00;5031683;28;104103;-68
2023/07/10 05:16:01;;;;;;;6.40;4.87;;;;;;;22.17;100.00;96710.38;5032431;27;102746;-68
2023/07/10 05:18:30;;;;;;;5.87;4.33;;;;;;;22.21;100.00;96711.31;5032919;27;101829;-68
2023/07/10 05:20:59;;;;;;;6.53;5.00;;;;;;;22.19;100.00;96721.69;5032825;27;102694;-68
2023/07/10 05:23:26;;;;;;;5.60;5.10;;;;;;;22.14;100.00;96716.41;5035520;27;102722;-68
2023/07/10 05:25:59;;;;;;;7.43;5.23;;;;;;;22.18;100.00;96703.84;5031406;28;105329;-68
2023/07/10 05:28:27;;;;;;;8.00;5.13;;;;;;;22.08;100.00;96706.84;5032120;27;102649;-68
2023/07/10 05:30:54;;;;;;;5.67;4.93;;;;;;;22.32;100.00;96699.06;5031042;28;101966;-68
2023/07/10 05:33:21;;;;;;;8.17;5.03;;;;;;;22.53;100.00;96698.16;5032758;27;102832;-68
2023/07/10 05:35:56;;;;;;;6.23;4.70;;;;;;;22.74;100.00;96707.25;5030849;28;104722;-68
2023/07/10 05:38:24;;;;;;;5.70;5.10;;;;;;;22.91;100.00;96714.56;5031380;28;101859;-68
2023/07/10 05:40:52;;;;;;;5.60;5.07;;;;;;;23.08;100.00;96701.00;5031283;28;105161;-68
2023/07/10 05:43:19;;;;;;;5.20;4.70;;;;;;;23.29;100.00;96699.22;5031976;28;102183;-68
2023/07/10 05:45:47;;;;;;;6.47;5.53;;;;;;;23.25;100.00;96704.50;5034620;28;102065;-68
2023/07/10 05:48:14;;;;;;;5.80;4.73;;;;;;;23.39;100.00;96715.16;5031867;27;102500;-68
2023/07/10 05:50:43;;;;;;;6.40;4.43;;;;;;;23.49;100.00;96715.59;5030977;28;101978;-67
2023/07/10 05:53:12;;;;;;;6.10;4.80;;;;;;;23.54;100.00;96720.09;5032493;27;102348;-66
2023/07/10 05:55:43;;;;;;;9.40;5.27;;;;;;;23.64;100.00;96725.16;5030417;28;103730;-66
2023/07/10 05:58:10;;;;;;;6.43;4.77;;;;;;;23.65;100.00;96715.88;5032580;27;101907;-66
2023/07/10 06:00:37;;;;;;;8.23;4.70;;;;;;;23.74;100.00;96706.56;5032370;28;102809;-66
2023/07/10 06:03:04;;;;;;;7.07;5.10;;;;;;;23.88;100.00;96707.19;5031577;27;102517;-66
2023/07/10 06:05:31;;;;;;;9.27;5.30;;;;;;;23.75;100.00;96723.69;5034486;28;102238;-66
2023/07/10 06:07:58;;;;;;;9.57;4.97;;;;;;;23.79;100.00;96713.75;5030285;28;105280;-66
2023/07/10 06:10:26;;;;;;;7.87;5.23;;;;;;;23.95;100.00;96712.91;5030691;28;101943;-66
2023/07/10 06:12:53;;;;;;;7.80;4.67;;;;;;;24.20;100.00;96714.66;5031071;27;102472;-66
2023/07/10 06:15:20;;;;;;;10.97;5.13;;;;;;;24.23;100.00;96713.22;5031413;27;102648;-66
2023/07/10 06:17:47;;;;;;;7.47;4.57;;;;;;;24.27;100.00;96719.59;5031976;27;101849;-66
2023/07/10 06:20:15;;;;;;;5.83;4.23;;;;;;;24.30;100.00;96716.25;5030726;28;105133;-66
2023/07/10 06:22:42;;;;;;;7.47;4.33;;;;;;;24.37;100.00;96722.75;5031324;27;102524;-66
2023/07/10 06:25:10;;;;;;;5.93;3.90;;;;;;;24.33;100.00;96712.84;5031995;27;102167;-69
2023/07/10 06:27:38;;;;;;;4.43;3.80;;;;;;;24.34;100.00;96725.31;5034912;27;102334;-69
2023/07/10 06:30:07;;;;;;;4.37;3.93;;;;;;;24.31;100.00;96718.59;5030336;28;101882;-69
2023/07/10 06:32:34;;;;;;;4.67;3.73;;;;;;;24.50;100.00;96720.88;5031665;27;102514;-69
2023/07/10 06:35:00;;;;;;;5.07;3.93;;;;;;;24.66;100.00;96722.72;5031299;28;103055;-69
2023/07/10 06:37:27;;;;;;;4.67;3.67;;;;;;;24.97;100.00;96722.31;5032054;27;102135;-68
2023/07/10 06:40:05;;;;;;;6.87;4.07;;;;;;;25.05;100.00;96714.06;5030479;28;105230;-69
2023/07/10 06:42:32;;;;;;;5.73;4.30;;;;;;;25.21;100.00;96714.22;5029704;28;105457;-69
2023/07/10 06:45:00;;;;;;;4.20;3.80;;;;;;;25.16;100.00;96715.25;5030256;28;102324;-69
2023/07/10 06:47:27;;;;;;;4.37;3.80;;;;;;;25.52;100.00;96717.28;5030193;28;105564;-69
2023/07/10 06:49:54;;;;;;;4.27;3.37;;;;;;;25.64;100.00;96720.84;5034352;27;103123;-68
2023/07/10 06:52:21;;;;;;;4.87;3.87;;;;;;;25.54;100.00;96726.72;5031569;27;102488;-69
2023/07/10 06:54:48;;;;;;;5.70;3.83;;;;;;;25.26;100.00;96724.94;5030901;27;102524;-68
2023/07/10 06:57:15;;;;;;;4.63;3.67;;;;;;;25.29;100.00;96725.06;5029866;28;102046;-69
2023/07/10 06:59:42;;;;;;;5.90;4.03;;;;;;;25.17;100.00;96726.94;5029934;28;105485;-69
2023/07/10 07:02:12;;;;;;;4.57;3.90;;;;;;;25.06;100.00;96725.75;5029501;28;105821;-68
2023/07/10 07:04:39;;;;;;;5.07;3.70;;;;;;;25.43;100.00;96731.00;5030037;28;101854;-66
2023/07/10 07:07:06;;;;;;;5.20;3.83;;;;;;;25.80;100.00;96731.88;5030005;28;105160;-66
2023/07/10 07:09:33;;;;;;;5.30;4.20;;;;;;;26.02;100.00;96734.19;5030581;27;102545;-66
2023/07/10 07:12:00;;;;;;;5.87;4.07;;;;;;;26.34;100.00;96733.28;5034632;28;101867;-66
2023/07/10 07:14:27;;;;;;;5.97;4.10;;;;;;;26.13;100.00;96727.16;5030380;27;103022;-66
2023/07/10 07:16:54;;;;;;;5.10;3.80;;;;;;;26.33;100.00;96728.97;5029830;28;101958;-66
2023/07/10 07:19:23;;;;;;;7.73;4.10;;;;;;;26.00;100.00;96736.47;5029608;28;105522;-66
2023/07/10 07:21:49;;;;;;;4.50;3.83;;;;;;;26.32;100.00;96730.88;5029290;28;105356;-66
2023/07/10 07:24:16;;;;;;;5.23;4.30;;;;;;;26.57;100.00;96748.06;5029421;27;102251;-66
2023/07/10 07:26:43;;;;;;;6.50;4.03;;;;;;;26.61;100.00;96735.31;5029701;28;105541;-66
2023/07/10 07:29:10;;;;;;;5.20;4.23;;;;;;;26.37;100.00;96735.34;5030314;28;103219;-66
2023/07/10 07:31:39;;;;;;;6.73;4.27;;;;;;;26.65;100.00;96744.41;5028913;28;102147;-66
2023/07/10 07:34:06;;;;;;;8.57;4.20;;;;;;;26.51;100.00;96746.66;5032184;28;105128;-66
2023/07/10 07:36:36;;;;;;;6.83;3.93;;;;;;;26.32;100.00;96744.53;5030852;27;101851;-66
2023/07/10 07:39:04;;;;;;;5.47;4.10;;;;;;;26.46;100.00;96749.63;5030969;27;102833;-66
2023/07/10 07:41:33;;;;;;;5.43;4.07;;;;;;;26.19;100.00;96753.84;5030013;27;102811;-66
2023/07/10 07:44:00;;;;;;;6.13;4.10;;;;;;;26.75;100.00;96758.38;5030554;27;101915;-66
2023/07/10 07:46:28;;;;;;;6.20;4.00;;;;;;;27.03;100.00;96756.47;5030767;27;102355;-66
2023/07/10 07:48:55;;;;;;;7.27;3.90;;;;;;;27.05;100.00;96758.84;5028837;28;105343;-66
2023/07/10 07:51:22;;;;;;;5.73;3.90;;;;;;;26.84;100.00;96764.50;5029116;28;102020;-66
2023/07/10 07:54:03;;;;;;;5.50;3.80;;;;;;;27.03;100.00;96777.53;5029131;28;105198;-66
2023/07/10 07:56:30;;;;;;;4.50;4.03;;;;;;;26.75;100.00;96772.00;5031562;28;102144;-66
2023/07/10 07:58:56;;;;;;;6.03;3.83;;;;;;;27.15;100.00;96772.84;5030757;27;102402;-66
2023/07/10 08:01:23;;;;;;;8.13;3.80;;;;;;;26.55;100.00;96785.81;5028454;28;105688;-66
2023/07/10 08:03:50;;;;;;;4.50;3.93;;;;;;;26.35;100.00;96792.94;5029094;28;101965;-66
2023/07/10 08:06:18;;;;;;;4.63;3.87;;;;;;;26.70;100.00;96785.09;5029038;28;105587;-66
2023/07/10 08:08:45;;;;;;;7.50;4.33;;;;;;;26.95;100.00;96794.81;5029823;27;102574;-66
2023/07/10 08:11:13;;;;;;;7.83;4.50;;;;;;;26.97;100.00;96790.63;5028597;28;101891;-66
2023/07/10 08:13:40;;;;;;;5.50;4.47;;;;;;;27.16;100.00;96796.25;5030302;27;102337;-66
2023/07/10 08:16:07;;;;;;;4.47;3.77;;;;;;;27.40;97.29;96800.88;5033180;27;102759;-66
2023/07/10 08:18:34;;;;;;;4.67;4.10;;;;;;;27.80;95.09;96812.56;5030215;27;102934;-66
2023/07/10 08:21:02;;;;;;;5.03;3.83;;;;;;;27.72;98.94;96810.72;5029588;27;102556;-66
2023/07/10 08:23:28;;;;;;;5.50;3.83;;;;;;;27.99;93.48;96810.72;5030136;27;102212;-66
2023/07/10 08:25:55;;;;;;;5.10;3.73;;;;;;;28.35;94.98;96820.63;5030139;27;102520;-66
2023/07/10 08:28:24;;;;;;;5.30;4.00;;;;;;;28.08;95.23;96818.75;5029572;27;102931;-66
2023/07/10 08:30:51;;;;;;;5.53;4.03;;;;;;;28.31;96.19;96822.47;5028208;28;101957;-66
2023/07/10 08:33:18;;;;;;;6.10;4.03;;;;;;;28.54;99.40;96820.72;5028502;28;103561;-66
2023/07/10 08:35:52;;;;;;;4.35;3.75;;;;;;;28.85;93.62;96824.22;5027273;27;105493;-66
2023/07/10 08:38:19;;;;;;;4.82;4.03;;;;;;;28.48;94.30;96835.81;5033562;27;101663;-66
2023/07/10 08:40:46;;;;;;;5.57;4.20;;;;;;;28.48;94.18;96833.09;5029233;27;103064;-66
2023/07/10 08:43:24;;;;;;;4.37;3.60;;;;;;;28.64;93.54;96836.59;5030047;27;102308;-66
2023/07/10 08:46:01;;;;;;;4.53;4.13;;;;;;;28.64;85.38;96836.59;5028668;28;105222;-66
2023/07/10 08:48:33;;;;;;;4.50;4.03;;;;;;;28.81;88.86;96834.28;5029484;27;102561;-66
2023/07/10 08:51:10;;;;;;;7.20;4.28;;;;;;;28.93;86.75;96844.34;5028363;28;101962;-66
2023/07/10 08:53:40;;;;;;;4.68;3.80;;;;;;;29.20;84.51;96844.19;5028735;28;105079;-66
2023/07/10 08:56:19;;;;;;;7.30;3.97;;;;;;;29.19;93.70;96852.78;5028818;27;103706;-66
2023/07/10 08:58:46;;;;;;;4.68;4.10;;;;;;;29.29;96.24;96853.00;5028519;28;102026;-66
2023/07/10 09:01:22;;;;;;;9.65;4.22;;;;;;;29.12;96.45;96847.13;5031033;28;105045;-66
2023/07/10 09:03:52;;;;;;;4.80;3.95;;;;;;;28.75;100.00;96848.59;5029764;27;102264;-66
2023/07/10 09:06:21;;;;;;;5.10;3.80;;;;;;;29.03;100.00;96869.25;5029308;27;103547;-66
2023/07/10 09:08:51;;;;;;;5.38;3.50;;;;;;;28.90;93.41;96883.38;5028754;27;103165;-69
2023/07/10 09:11:19;;;;;;;5.07;3.70;;;;;;;28.45;72.86;96891.28;5028032;28;101880;-69
2023/07/10 09:13:51;;;;;;;5.70;3.40;;;;;;;28.44;64.60;96903.38;5029473;27;102844;-69
2023/07/10 09:16:21;;;;;;;4.03;3.30;;;;;;;28.21;66.08;96899.59;5028847;27;102852;-69
2023/07/10 09:18:52;;;;;;;7.50;3.78;;;;;;;28.15;63.89;96918.19;5028085;28;101881;-68
2023/07/10 09:21:21;;;;;;;6.40;3.63;;;;;;;28.02;68.86;96929.56;5028144;28;105216;-68
2023/07/10 09:23:49;;;;;;;6.00;4.07;;;;;;;28.00;70.55;96920.91;5032036;28;102566;-69
2023/07/10 09:26:18;;;;;;;6.05;3.70;;;;;;;28.03;71.74;96936.59;5029366;27;102322;-68
2023/07/10 09:29:05;;;;;;;7.30;3.50;;;;;;;27.99;71.91;96941.16;5028514;28;103166;-68
2023/07/10 09:31:44;;;;;;;7.50;4.13;;;;;;;27.74;70.88;96939.66;5027338;28;101878;-66
2023/07/10 09:34:11;;;;;;;8.90;3.87;;;;;;;27.64;74.15;96945.59;5027979;28;104026;-67
2023/07/10 09:36:39;;;;;;;4.00;3.60;;;;;;;27.44;74.46;96961.03;5028510;27;102547;-67
2023/07/10 09:39:06;;;;;;;9.17;3.70;;;;;;;27.39;75.84;96972.19;5027627;28;101884;-67
2023/07/10 09:41:32;;;;;;;9.30;4.07;;;;;;;27.19;80.49;96986.75;5029087;27;102462;-67
2023/07/10 09:44:02;;;;;;;4.47;3.70;;;;;;;27.11;84.75;96989.56;5027217;28;105598;-67
2023/07/10 09:46:32;;;;;;;7.53;4.03;;;;;;;26.71;87.64;97005.78;5032392;27;101898;-67
2023/07/10 09:49:03;;;;;;;6.27;3.40;;;;;;;26.48;91.91;96971.06;5031708;27;103109;-67
2023/07/10 09:51:31;;;;;;;6.93;3.50;;;;;;;26.29;98.27;96968.03;5031079;28;101897;-67
2023/07/10 09:54:04;;;;;;;5.07;3.70;;;;;;;26.02;100.00;96914.91;5032462;27;102410;-67
2023/07/10 09:56:35;;;;;;;4.23;3.27;;;;;;;26.00;100.00;96921.81;5031892;28;102656;-67
2023/07/10 09:59:03;;;;;;;6.10;3.60;;;;;;;25.79;100.00;96918.31;5031156;28;101947;-67
2023/07/10 10:01:32;;;;;;;7.07;3.53;;;;;;;25.74;100.00;96915.78;5032308;27;102598;-67
2023/07/10 10:04:03;;;;;;;8.00;3.70;;;;;;;25.68;100.00;96931.56;5031611;27;102635;-67
2023/07/10 10:06:32;;;;;;;5.00;3.63;;;;;;;25.62;100.00;96921.97;5034437;28;101827;-67
2023/07/10 10:09:13;;;;;;;8.13;3.93;;;;;;;25.44;100.00;96941.50;5030057;28;105717;-67
2023/07/10 10:11:46;;;;;;;10.53;4.10;;;;;;;25.28;100.00;96921.44;5032307;27;101874;-67
2023/07/10 10:14:16;;;;;;;5.40;3.70;;;;;;;25.17;100.00;96895.72;5030898;28;103519;-67
2023/07/10 10:16:55;;;;;;;6.90;3.83;;;;;;;25.11;100.00;96886.16;5030060;28;105908;-67
2023/07/10 10:19:27;;;;;;;6.80;3.80;;;;;;;24.91;100.00;96898.56;5030676;28;102151;-67
2023/07/10 10:21:54;;;;;;;5.93;3.83;;;;;;;24.92;100.00;96880.34;5032246;27;102523;-67
2023/07/10 10:24:21;;;;;;;8.83;3.73;;;;;;;25.07;100.00;96841.66;5031447;27;103105;-67
2023/07/10 10:27:01;;;;;;;6.70;3.60;;;;;;;24.92;100.00;96843.03;5030585;28;102265;-67
2023/07/10 10:29:48;;;;;;;5.37;3.73;;;;;;;24.80;100.00;96856.53;5033431;28;105530;-67
2023/07/10 10:32:27;;;;;;;6.10;3.97;;;;;;;24.35;100.00;96879.16;5030100;28;101852;-67
2023/07/10 10:35:08;;;;;;;7.23;3.70;;;;;;;24.83;100.00;96863.25;5030369;28;105564;-67
2023/07/10 10:37:47;;;;;;;7.10;4.37;;;;;;;25.10;100.00;96866.28;5031233;27;102761;-67
2023/07/10 10:40:23;;;;;;;5.90;3.93;;;;;;;25.49;100.00;96875.94;5032022;27;102026;-67
2023/07/10 10:42:55;;;;;;;6.63;4.40;;;;;;;25.85;100.00;96866.00;5031898;27;102411;-67
2023/07/10 10:45:28;;;;;;;4.40;3.50;;;;;;;25.97;100.00;96865.25;5031337;27;102627;-67
2023/07/10 10:48:04;;;;;;;5.07;3.60;;;;;;;26.21;100.00;96854.41;5030299;28;101936;-67
2023/07/10 10:50:46;;;;;;;4.23;3.83;;;;;;;26.61;100.00;96858.91;5031609;28;102393;-67
2023/07/10 10:53:29;;;;;;;6.00;3.33;;;;;;;27.13;100.00;96853.50;5034523;27;102549;-67
2023/07/10 10:56:10;;;;;;;7.90;3.97;;;;;;;27.15;100.00;96853.94;5030197;28;103882;-67
2023/07/10 10:58:53;;;;;;;5.10;3.80;;;;;;;27.46;100.00;96859.59;5029066;28;105791;-67
2023/07/10 11:01:36;;;;;;;6.07;4.10;;;;;;;26.71;100.00;96857.66;5029975;28;101911;-67
2023/07/10 11:04:19;;;;;;;5.20;3.60;;;;;;;26.89;100.00;96856.25;5031492;27;102359;-67
2023/07/10 11:06:52;;;;;;;5.53;3.80;;;;;;;26.84;100.00;96865.47;5030804;28;102753;-67
2023/07/10 11:09:25;;;;;;;7.83;3.43;;;;;;;27.39;100.00;96867.56;5030122;28;101984;-67
2023/07/10 11:11:53;;;;;;;6.73;3.30;;;;;;;27.36;100.00;96860.06;5029882;28;105426;-67
2023/07/10 11:14:22;;;;;;;6.23;3.53;;;;;;;27.36;100.00;96857.34;5030489;27;102471;-67
2023/07/10 11:16:49;;;;;;;5.33;3.20;;;;;;;27.60;100.00;96840.84;5034572;27;102261;-67
2023/07/10 11:19:21;;;;;;;3.27;3.03;;;;;;;27.64;100.00;96836.28;5030471;27;103140;-67
2023/07/10 11:21:52;;;;;;;5.80;3.57;;;;;;;28.33;100.00;96839.34;5031332;27;101994;-67
2023/07/10 11:24:31;;;;;;;4.87;3.30;;;;;;;27.94;100.00;96835.59;5029721;28;103652;-67
2023/07/10 11:27:11;;;;;;;5.40;3.87;;;;;;;28.07;100.00;96836.31;5030469;27;102644;-67
2023/07/10 11:29:42;;;;;;;5.13;3.43;;;;;;;28.30;100.00;96832.63;5031131;27;102160;-67